Time;durP1;ratioP1;P1;durP2;ratioP2;P2;SDS_P1;SDS_P2;PMS_P1;PMS_P2;Temp;Humidity;BMP_temperature;BMP_pressure;BME280_temperature;BME280_humidity;BME280_pressure;Samples;Min_cycle;Max_cycle;Signal;HPM_P1;HPM_P2
2022/12/13 00:00:19;;;;;;;29.67;14.63;;;;;;;41.28;36.26;101011.84;5112915;28;20826;-68
2022/12/13 00:02:45;;;;;;;23.70;14.80;;;;;;;41.34;36.47;101007.84;5112928;28;20793;-68
2022/12/13 00:05:12;;;;;;;30.30;12.80;;;;;;;41.22;36.27;101002.25;5112746;28;20439;-70
2022/12/13 00:07:38;;;;;;;22.67;13.40;;;;;;;41.10;36.56;101005.63;5112956;28;20446;-69
2022/12/13 00:10:05;;;;;;;25.33;12.60;;;;;;;41.13;36.49;100996.84;5112797;28;20412;-69
2022/12/13 00:12:32;;;;;;;25.63;16.00;;;;;;;40.90;36.80;100996.25;5112665;28;20438;-70
2022/12/13 00:14:58;;;;;;;28.80;14.97;;;;;;;41.10;36.82;100999.41;5112688;28;20416;-70
2022/12/13 00:17:24;;;;;;;24.30;12.60;;;;;;;41.09;37.09;100985.00;5112676;28;20439;-70
2022/12/13 00:19:50;;;;;;;25.93;13.80;;;;;;;41.14;36.64;100984.81;5112287;28;20852;-70
2022/12/13 00:22:16;;;;;;;33.73;13.73;;;;;;;41.10;36.81;100986.59;5112564;28;20174;-69
2022/12/13 00:24:42;;;;;;;25.53;13.70;;;;;;;40.79;36.92;100984.88;5112436;28;20412;-70
2022/12/13 00:27:08;;;;;;;22.10;12.90;;;;;;;41.23;36.17;100985.59;5112390;28;20446;-69
2022/12/13 00:29:34;;;;;;;32.83;15.73;;;;;;;41.45;36.32;100987.28;5114030;28;20416;-69
2022/12/13 00:32:00;;;;;;;27.93;14.47;;;;;;;41.02;36.76;100988.22;5114033;28;20401;-69
2022/12/13 00:34:27;;;;;;;29.50;15.47;;;;;;;40.90;37.02;100979.09;5112416;28;20408;-69
2022/12/13 00:36:54;;;;;;;32.37;17.30;;;;;;;41.25;36.83;100980.63;5112242;28;20421;-69
2022/12/13 00:39:20;;;;;;;46.77;14.53;;;;;;;41.02;37.37;100973.81;5112245;28;20440;-69
2022/12/13 00:41:46;;;;;;;33.17;14.47;;;;;;;41.19;37.02;100970.22;5112136;28;20412;-69
2022/12/13 00:44:13;;;;;;;22.20;14.60;;;;;;;41.05;37.11;100971.22;5113894;28;20388;-70
2022/12/13 00:46:40;;;;;;;27.50;13.33;;;;;;;40.87;37.26;100968.88;5113919;28;20878;-69
2022/12/13 00:49:08;;;;;;;20.63;13.00;;;;;;;41.23;36.62;100961.09;5112089;28;20416;-69
2022/12/13 00:51:34;;;;;;;43.80;14.47;;;;;;;41.26;36.36;100962.38;5112132;28;20499;-69
2022/12/13 00:54:01;;;;;;;28.23;14.30;;;;;;;41.25;36.32;100960.75;5112235;28;20850;-70
2022/12/13 00:56:29;;;;;;;18.33;12.73;;;;;;;41.43;36.14;100964.22;5112107;28;20436;-69
2022/12/13 00:58:56;;;;;;;25.23;13.07;;;;;;;41.43;36.02;100958.78;5111964;28;20419;-67
2022/12/13 01:01:28;;;;;;;32.07;12.57;;;;;;;41.28;36.22;100960.09;5113624;28;20389;-68
2022/12/13 01:03:57;;;;;;;22.57;13.23;;;;;;;41.21;36.42;100955.19;5111891;28;20419;-68
2022/12/13 01:06:30;;;;;;;22.63;14.27;;;;;;;41.16;36.11;100946.41;5094934;28;20425;-68
2022/12/13 01:08:56;;;;;;;28.80;14.43;;;;;;;40.94;36.20;100942.78;5111942;28;20778;-67
2022/12/13 01:11:22;;;;;;;22.33;14.07;;;;;;;41.12;35.88;100942.72;5111812;28;20408;-68
2022/12/13 01:13:48;;;;;;;24.03;12.93;;;;;;;41.01;36.07;100942.31;5111805;28;20408;-68
2022/12/13 01:16:14;;;;;;;26.93;14.43;;;;;;;41.10;35.35;100943.06;5112010;28;20423;-68
2022/12/13 01:18:41;;;;;;;38.67;14.50;;;;;;;41.01;35.69;100934.13;5113379;28;20558;-70
2022/12/13 01:21:19;;;;;;;21.83;12.10;;;;;;;41.14;35.52;100929.59;5111598;28;21023;-69
2022/12/13 01:23:46;;;;;;;33.23;15.07;;;;;;;40.60;36.29;100935.50;5111801;28;20415;-70
2022/12/13 01:26:18;;;;;;;29.17;12.93;;;;;;;41.14;35.36;100930.41;5111696;28;20446;-70
2022/12/13 01:28:43;;;;;;;21.50;12.30;;;;;;;41.21;35.19;100922.50;5111624;28;20415;-70
2022/12/13 01:31:13;;;;;;;24.93;11.90;;;;;;;41.13;35.29;100925.25;5111755;28;20443;-70
2022/12/13 01:33:40;;;;;;;37.63;15.23;;;;;;;40.86;35.92;100918.31;5111498;28;20465;-70
2022/12/13 01:36:09;;;;;;;24.63;13.47;;;;;;;41.05;35.98;100914.09;5111569;28;20877;-68
2022/12/13 01:38:36;;;;;;;23.93;12.80;;;;;;;41.07;35.88;100916.50;5113204;28;20393;-68
2022/12/13 01:41:02;;;;;;;26.00;14.03;;;;;;;41.02;35.80;100911.25;5094535;28;20519;-68
2022/12/13 01:43:29;;;;;;;23.63;12.60;;;;;;;40.96;35.83;100901.66;5113207;28;20393;-68
2022/12/13 01:45:55;;;;;;;26.43;14.20;;;;;;;41.10;35.54;100904.16;5111443;28;20412;-68
2022/12/13 01:48:29;;;;;;;24.23;13.30;;;;;;;41.07;36.15;100895.53;5111609;28;20461;-69
2022/12/13 01:51:01;;;;;;;22.67;13.80;;;;;;;41.03;36.06;100900.03;5111420;28;20411;-69
2022/12/13 01:53:32;;;;;;;28.57;13.67;;;;;;;41.19;35.67;100888.56;5111379;28;20412;-70
2022/12/13 01:56:04;;;;;;;24.70;13.07;;;;;;;41.38;35.72;100885.47;5111424;28;20434;-70
2022/12/13 01:58:30;;;;;;;31.87;14.97;;;;;;;41.16;36.09;100887.31;5111426;28;20801;-69
2022/12/13 02:00:59;;;;;;;24.93;13.10;;;;;;;41.14;36.55;100886.06;5111311;28;20454;-69
2022/12/13 02:03:25;;;;;;;38.87;14.60;;;;;;;40.90;36.50;100884.72;5111327;28;20500;-69
2022/12/13 02:06:15;;;;;;;23.77;11.77;;;;;;;40.82;36.54;100885.50;5111476;28;20481;-69
2022/12/13 02:08:44;;;;;;;29.60;13.97;;;;;;;40.77;36.36;100881.06;5117089;28;20406;-69
2022/12/13 02:11:10;;;;;;;22.00;15.13;;;;;;;40.58;36.96;100883.38;5116804;28;20431;-69
2022/12/13 02:13:37;;;;;;;29.20;13.50;;;;;;;40.92;36.39;100884.38;5115540;28;20419;-69
2022/12/13 02:16:14;;;;;;;32.77;16.23;;;;;;;40.92;36.09;100885.19;5115355;28;20472;-69
2022/12/13 02:18:56;;;;;;;27.63;17.03;;;;;;;40.76;36.57;100884.09;5114975;28;20411;-69
2022/12/13 02:21:42;;;;;;;30.93;14.13;;;;;;;41.12;35.62;100878.19;5094403;28;20905;-69
2022/12/13 02:24:17;;;;;;;22.70;14.73;;;;;;;41.00;35.45;100878.91;5094574;28;20432;-70
2022/12/13 02:27:03;;;;;;;27.70;13.17;;;;;;;40.98;35.40;100874.91;5085666;28;20420;-69
2022/12/13 02:29:49;;;;;;;23.30;13.00;;;;;;;41.04;35.70;100874.41;5075786;28;20393;-69
2022/12/13 02:32:15;;;;;;;23.77;12.87;;;;;;;40.91;35.64;100875.44;5074159;28;20409;-70
2022/12/13 02:34:46;;;;;;;23.73;13.73;;;;;;;41.14;35.42;100872.47;5074113;28;20413;-68
2022/12/13 02:37:26;;;;;;;24.03;13.53;;;;;;;40.94;35.75;100874.75;5075750;28;20171;-68
2022/12/13 02:39:57;;;;;;;27.23;15.90;;;;;;;41.25;35.30;100870.94;5073753;28;20831;-68
2022/12/13 02:42:33;;;;;;;26.63;13.63;;;;;;;40.97;36.08;100870.59;5073878;28;20417;-68
2022/12/13 02:45:23;;;;;;;21.27;12.23;;;;;;;40.65;36.56;100864.63;5073713;28;20434;-68
2022/12/13 02:47:53;;;;;;;31.73;15.97;;;;;;;40.49;37.04;100864.34;5075530;28;20382;-67
2022/12/13 02:50:20;;;;;;;32.00;13.30;;;;;;;40.57;36.87;100865.44;5073750;28;20417;-68
2022/12/13 02:52:48;;;;;;;27.23;14.83;;;;;;;40.16;37.39;100866.78;5073665;28;20433;-68
2022/12/13 02:55:15;;;;;;;20.60;12.90;;;;;;;40.67;36.61;100875.97;5084166;28;20400;-67
2022/12/13 02:57:44;;;;;;;19.30;10.87;;;;;;;40.84;36.38;100871.59;5095148;28;20432;-68
2022/12/13 03:00:20;;;;;;;26.83;13.03;;;;;;;40.53;37.12;100873.47;5095352;28;20472;-68
2022/12/13 03:03:09;;;;;;;27.53;15.73;;;;;;;40.54;36.92;100874.25;5093842;28;20428;-68
2022/12/13 03:09:06;;;;;;;26.17;14.03;;;;;;;40.51;36.64;100875.69;5095042;28;20778;-68
2022/12/13 03:14:27;;;;;;;28.53;13.07;;;;;;;40.78;37.15;100885.38;5094627;28;20389;-68
2022/12/13 03:16:54;;;;;;;30.10;13.13;;;;;;;40.92;36.55;100889.81;5095127;28;20393;-67
2022/12/13 03:19:21;;;;;;;20.13;13.10;;;;;;;40.40;37.54;100876.34;5063493;28;20565;-67
2022/12/13 03:21:48;;;;;;;28.40;16.00;;;;;;;41.09;36.65;100897.94;5115364;28;20840;-68
2022/12/13 03:24:20;;;;;;;27.47;13.10;;;;;;;40.52;37.23;100898.25;5113734;28;20439;-68
2022/12/13 03:26:48;;;;;;;19.40;12.83;;;;;;;40.62;37.11;100897.91;5113612;28;20416;-68
2022/12/13 03:29:14;;;;;;;20.43;13.90;;;;;;;40.68;36.82;100909.41;5113637;28;20434;-68
2022/12/13 03:31:40;;;;;;;29.60;14.27;;;;;;;40.65;37.21;100905.41;5113499;28;20412;-68
2022/12/13 03:34:06;;;;;;;23.97;12.80;;;;;;;40.82;36.09;100915.44;5113557;28;20422;-69
2022/12/13 03:36:32;;;;;;;25.57;13.20;;;;;;;40.52;36.82;100914.56;5113775;28;20181;-68
2022/12/13 03:38:59;;;;;;;53.10;15.47;;;;;;;40.60;36.89;100904.78;5113426;28;20411;-68
2022/12/13 03:41:30;;;;;;;27.63;15.17;;;;;;;40.50;37.21;100908.63;5113363;28;20450;-68
2022/12/13 03:44:06;;;;;;;34.27;13.80;;;;;;;40.59;37.03;100906.72;5113314;28;20412;-68
2022/12/13 03:46:32;;;;;;;28.33;14.27;;;;;;;40.77;36.34;100908.25;5113378;28;20403;-68
2022/12/13 03:48:58;;;;;;;31.77;18.60;;;;;;;40.38;37.42;100909.25;5113251;28;20483;-68
2022/12/13 03:51:24;;;;;;;30.67;15.43;;;;;;;40.35;37.72;100920.00;5115161;28;20399;-68
2022/12/13 03:53:50;;;;;;;23.27;12.97;;;;;;;40.70;36.79;100926.19;5113270;28;20944;-68
2022/12/13 03:56:16;;;;;;;20.47;13.10;;;;;;;40.74;36.57;100917.06;5113282;28;20526;-69
2022/12/13 03:58:42;;;;;;;28.07;14.87;;;;;;;40.99;36.77;100914.59;5113135;28;20502;-69
2022/12/13 04:01:12;;;;;;;22.93;13.93;;;;;;;40.71;36.86;100914.19;5113559;28;20443;-69
2022/12/13 04:03:39;;;;;;;29.67;15.37;;;;;;;40.66;36.63;100923.31;5113033;28;20418;-68
2022/12/13 04:06:06;;;;;;;20.57;13.80;;;;;;;40.64;37.09;100920.13;5112978;28;20415;-68
2022/12/13 04:08:32;;;;;;;28.03;14.10;;;;;;;40.80;36.36;100923.91;5112856;28;20408;-68
2022/12/13 04:10:58;;;;;;;26.07;15.27;;;;;;;40.85;36.30;100930.31;5113330;28;20412;-68
2022/12/13 04:13:33;;;;;;;29.60;13.77;;;;;;;40.69;36.70;100938.97;5112755;28;20446;-68
2022/12/13 04:16:01;;;;;;;29.13;13.40;;;;;;;40.69;36.90;100938.97;5112764;28;20873;-69
2022/12/13 04:18:27;;;;;;;17.13;11.47;;;;;;;41.01;36.23;100934.94;5112681;28;20442;-69
2022/12/13 04:20:53;;;;;;;26.87;13.30;;;;;;;40.96;36.77;100942.47;5112419;28;20468;-68
2022/12/13 04:23:19;;;;;;;23.00;14.47;;;;;;;40.95;36.41;100951.78;5112652;28;20453;-67
2022/12/13 04:25:45;;;;;;;25.30;13.93;;;;;;;41.25;36.04;100949.88;5112706;28;20411;-67
2022/12/13 04:28:11;;;;;;;22.77;13.00;;;;;;;40.95;36.55;100952.56;5112532;28;20439;-68
2022/12/13 04:30:37;;;;;;;22.50;13.23;;;;;;;40.68;36.93;100950.19;5111934;28;20411;-67
2022/12/13 04:33:03;;;;;;;23.80;14.50;;;;;;;40.81;36.61;100960.88;5112494;28;20420;-69
2022/12/13 04:35:29;;;;;;;23.53;13.97;;;;;;;40.85;36.97;100962.97;5112357;28;20447;-69
2022/12/13 04:37:56;;;;;;;24.63;16.53;;;;;;;41.06;36.30;100961.16;5113924;28;20486;-69
2022/12/13 04:40:22;;;;;;;27.50;15.43;;;;;;;41.08;36.26;100953.47;5112257;28;20447;-67
2022/12/13 04:42:48;;;;;;;26.60;14.33;;;;;;;40.79;36.78;100963.13;5112257;28;20482;-67
2022/12/13 04:45:17;;;;;;;37.57;18.30;;;;;;;40.61;37.29;100964.28;5112249;28;20469;-68
2022/12/13 04:47:43;;;;;;;28.53;14.90;;;;;;;40.27;37.64;100960.47;5111793;28;20419;-68
2022/12/13 04:50:09;;;;;;;20.67;14.90;;;;;;;40.37;37.42;100967.47;5111668;28;20388;-67
2022/12/13 04:52:36;;;;;;;24.83;16.83;;;;;;;40.12;38.02;100971.00;5093310;28;20470;-68
2022/12/13 04:55:03;;;;;;;23.20;16.80;;;;;;;39.73;38.94;100970.75;5093284;28;20401;-68
2022/12/13 04:57:29;;;;;;;25.10;17.43;;;;;;;39.77;38.79;100976.34;5091648;28;20413;-68
2022/12/13 04:59:55;;;;;;;29.60;18.50;;;;;;;39.70;39.18;100973.28;5091539;28;20448;-68
2022/12/13 05:02:21;;;;;;;31.23;18.67;;;;;;;39.68;39.37;100984.47;5093012;28;20433;-68
2022/12/13 05:04:47;;;;;;;24.77;15.37;;;;;;;39.98;38.09;100985.50;5091592;28;20412;-68
2022/12/13 05:07:13;;;;;;;26.87;16.00;;;;;;;40.14;38.49;100991.28;5091801;28;20495;-68
2022/12/13 05:09:39;;;;;;;26.53;17.83;;;;;;;40.40;37.82;100982.34;5091354;28;20400;-68
2022/12/13 05:12:05;;;;;;;31.90;17.10;;;;;;;39.54;39.16;100989.19;5091478;28;20826;-69
2022/12/13 05:14:31;;;;;;;25.10;16.10;;;;;;;39.29;39.50;100989.88;5091175;28;20990;-69
2022/12/13 05:16:58;;;;;;;32.57;19.10;;;;;;;39.99;38.39;100997.97;5091500;28;20458;-70
2022/12/13 05:19:25;;;;;;;33.70;18.43;;;;;;;39.86;38.39;100989.94;5096712;28;20515;-67
2022/12/13 05:21:51;;;;;;;37.33;18.80;;;;;;;39.31;39.64;100987.66;5091120;28;20472;-68
2022/12/13 05:24:17;;;;;;;26.97;17.47;;;;;;;39.67;39.09;100984.78;5091316;28;20469;-67
2022/12/13 05:26:42;;;;;;;41.13;19.00;;;;;;;39.45;39.01;100985.63;5091288;28;20489;-67
2022/12/13 05:29:08;;;;;;;29.47;19.13;;;;;;;39.40;39.07;100989.28;5074766;28;20419;-67
2022/12/13 05:31:34;;;;;;;38.10;18.10;;;;;;;40.07;38.10;100990.97;5092754;28;20411;-69
2022/12/13 05:34:00;;;;;;;43.33;23.50;;;;;;;39.18;39.92;100987.44;5092822;28;20385;-70
2022/12/13 05:36:27;;;;;;;37.67;22.57;;;;;;;39.39;39.14;100989.59;5093097;28;20789;-68
2022/12/13 05:38:53;;;;;;;60.70;25.17;;;;;;;39.39;39.17;101005.88;5091510;28;20405;-68
2022/12/13 05:41:26;;;;;;;42.40;25.43;;;;;;;39.88;38.76;101001.28;5112467;28;20439;-68
2022/12/13 05:43:52;;;;;;;62.17;27.63;;;;;;;39.78;38.52;101001.56;5115900;28;20440;-70
2022/12/13 05:46:18;;;;;;;47.13;25.73;;;;;;;39.97;38.21;100999.41;5112477;28;20519;-71
2022/12/13 05:48:44;;;;;;;51.30;27.97;;;;;;;40.21;38.30;101012.56;5106155;28;20407;-67
2022/12/13 05:51:10;;;;;;;45.40;26.03;;;;;;;40.43;37.59;101017.84;5104006;28;20411;-66
2022/12/13 05:53:37;;;;;;;47.17;28.73;;;;;;;40.47;37.29;101015.28;5103358;28;20780;-67
2022/12/13 05:56:03;;;;;;;44.73;29.87;;;;;;;40.51;37.37;101022.50;5104856;28;20451;-68
2022/12/13 05:58:29;;;;;;;50.30;35.53;;;;;;;40.40;37.17;101015.78;5105006;28;20423;-68
2022/12/13 06:01:02;;;;;;;53.60;30.23;;;;;;;40.51;37.45;101018.97;5103993;28;20448;-68
2022/12/13 06:03:41;;;;;;;46.03;31.13;;;;;;;40.46;37.21;101030.81;5104870;28;20393;-69
2022/12/13 06:06:09;;;;;;;51.90;28.93;;;;;;;40.48;37.40;101025.06;5104900;28;20458;-67
2022/12/13 06:08:35;;;;;;;71.37;30.57;;;;;;;40.54;36.91;101021.88;5115167;28;20407;-69
2022/12/13 06:11:03;;;;;;;43.53;28.10;;;;;;;40.41;36.91;101022.81;5115234;28;20411;-69
2022/12/13 06:13:29;;;;;;;45.53;29.37;;;;;;;40.55;36.87;101026.19;5115370;28;20404;-69
2022/12/13 06:16:01;;;;;;;48.83;31.00;;;;;;;40.49;37.26;101035.63;5115160;28;20550;-69
2022/12/13 06:18:28;;;;;;;44.73;31.00;;;;;;;40.36;37.84;101039.28;5097920;28;20424;-68
2022/12/13 06:20:57;;;;;;;41.63;30.10;;;;;;;40.20;37.83;101044.34;5111608;28;20471;-68
2022/12/13 06:23:23;;;;;;;47.77;28.60;;;;;;;40.45;37.75;101050.94;5109029;28;20408;-69
2022/12/13 06:25:49;;;;;;;46.50;31.13;;;;;;;40.50;37.29;101053.53;5114778;28;20433;-68
2022/12/13 06:28:15;;;;;;;55.77;29.70;;;;;;;40.28;37.17;101057.19;5114375;28;20415;-68
2022/12/13 06:30:41;;;;;;;74.80;32.43;;;;;;;40.44;37.75;101054.78;5114874;28;20404;-68
2022/12/13 06:33:09;;;;;;;40.57;26.70;;;;;;;40.67;36.83;101052.72;5115473;28;20817;-69
2022/12/13 06:35:35;;;;;;;44.43;28.47;;;;;;;40.79;36.58;101061.03;5114320;28;20957;-68
2022/12/13 06:38:01;;;;;;;54.97;34.10;;;;;;;40.84;36.47;101062.00;5114507;28;20479;-69
2022/12/13 06:40:30;;;;;;;48.87;35.57;;;;;;;40.90;36.38;101071.59;5114119;28;20459;-69
2022/12/13 06:42:56;;;;;;;64.33;35.30;;;;;;;40.78;36.42;101083.13;5114324;28;20404;-68
2022/12/13 06:45:22;;;;;;;53.00;34.93;;;;;;;40.88;36.19;101087.44;5115868;28;20415;-69
2022/12/13 06:47:48;;;;;;;52.40;39.67;;;;;;;40.79;36.42;101088.25;5113806;28;20420;-71
2022/12/13 06:50:14;;;;;;;51.40;34.50;;;;;;;40.83;36.35;101088.41;5114219;28;21063;-69
2022/12/13 06:52:40;;;;;;;49.53;32.07;;;;;;;40.86;36.46;101098.63;5112017;28;20504;-69
2022/12/13 06:55:06;;;;;;;53.50;35.70;;;;;;;39.96;38.21;101098.28;5094041;28;20516;-69
2022/12/13 06:57:32;;;;;;;53.87;36.60;;;;;;;39.87;38.59;101111.06;5095454;28;20401;-70
2022/12/13 06:59:59;;;;;;;48.77;32.83;;;;;;;40.45;37.98;101109.94;5095303;28;20561;-70
2022/12/13 07:02:25;;;;;;;63.57;39.73;;;;;;;40.55;37.44;101109.69;5093789;28;20918;-69
2022/12/13 07:04:52;;;;;;;65.00;45.10;;;;;;;40.79;37.06;101114.66;5093751;28;20505;-69
2022/12/13 07:07:17;;;;;;;67.10;36.50;;;;;;;40.87;36.68;101118.47;5093925;28;20421;-69
2022/12/13 07:09:43;;;;;;;54.17;36.13;;;;;;;40.62;37.16;101131.75;5093651;28;20842;-68
2022/12/13 07:12:10;;;;;;;47.53;32.17;;;;;;;40.52;37.42;101129.38;5076875;28;20955;-69
2022/12/13 07:14:36;;;;;;;61.77;32.50;;;;;;;40.27;37.40;101131.69;5093409;28;20420;-68
2022/12/13 07:17:02;;;;;;;52.90;33.30;;;;;;;40.34;37.89;101136.66;5095221;28;20449;-69
2022/12/13 07:19:28;;;;;;;52.13;30.63;;;;;;;40.26;38.20;101142.84;5093212;28;20470;-69
2022/12/13 07:21:54;;;;;;;44.13;31.73;;;;;;;39.76;38.60;101149.34;5093206;28;20471;-69
2022/12/13 07:24:20;;;;;;;47.80;30.47;;;;;;;39.95;38.11;101140.97;5095028;28;20476;-68
2022/12/13 07:26:46;;;;;;;53.50;31.10;;;;;;;40.07;38.21;101148.53;5093229;28;20413;-69
2022/12/13 07:29:12;;;;;;;57.73;31.77;;;;;;;40.34;37.89;101142.09;5094858;28;20404;-68
2022/12/13 07:31:38;;;;;;;45.17;31.17;;;;;;;40.45;37.58;101156.16;5093215;28;20417;-68
2022/12/13 07:34:04;;;;;;;50.90;27.67;;;;;;;40.36;37.59;101155.34;5093105;28;20449;-68
2022/12/13 07:36:30;;;;;;;44.13;26.70;;;;;;;40.55;37.41;101164.06;5093467;28;20914;-69
2022/12/13 07:38:57;;;;;;;44.17;30.63;;;;;;;40.41;37.86;101164.16;5093138;28;20415;-69
2022/12/13 07:41:24;;;;;;;57.27;26.20;;;;;;;40.32;37.91;101168.78;5093062;28;20520;-68
2022/12/13 07:43:54;;;;;;;39.30;27.50;;;;;;;40.62;37.55;101164.38;5093076;28;20413;-70
2022/12/13 07:46:20;;;;;;;40.23;26.10;;;;;;;40.24;38.05;101170.34;5092842;28;21015;-70
2022/12/13 07:48:46;;;;;;;56.47;30.47;;;;;;;40.61;37.34;101170.94;5092996;28;20441;-70
2022/12/13 07:51:13;;;;;;;38.00;24.27;;;;;;;40.92;37.06;101179.00;5093371;28;20408;-69
2022/12/13 07:53:39;;;;;;;35.43;20.03;;;;;;;40.97;36.49;101180.78;5094652;28;20468;-68
2022/12/13 07:56:08;;;;;;;33.40;22.43;;;;;;;41.03;36.13;101184.94;5094316;28;20417;-69
2022/12/13 07:58:35;;;;;;;33.10;20.40;;;;;;;40.76;37.08;101189.53;5092707;28;20428;-68
2022/12/13 08:01:10;;;;;;;33.90;22.80;;;;;;;41.21;36.62;101188.47;5092660;28;20983;-68
2022/12/13 08:03:37;;;;;;;27.67;18.80;;;;;;;41.11;36.16;101186.06;5093507;28;20879;-70
2022/12/13 08:06:09;;;;;;;30.07;18.20;;;;;;;41.08;35.60;101188.31;5092431;28;20859;-70
2022/12/13 08:08:36;;;;;;;34.73;18.17;;;;;;;41.17;35.89;101193.72;5092496;28;20401;-70
2022/12/13 08:11:03;;;;;;;34.93;19.60;;;;;;;41.36;35.72;101196.16;5094105;28;20876;-67
2022/12/13 08:13:29;;;;;;;38.63;16.60;;;;;;;41.24;35.50;101194.03;5094084;28;20389;-67
2022/12/13 08:16:00;;;;;;;22.90;15.47;;;;;;;41.22;35.59;101198.22;5092461;28;20969;-68
2022/12/13 08:18:27;;;;;;;32.93;16.13;;;;;;;41.33;35.58;101200.31;5092404;28;20811;-68
2022/12/13 08:20:58;;;;;;;25.83;16.97;;;;;;;41.05;36.00;101188.94;5091943;28;20464;-68
2022/12/13 08:23:24;;;;;;;31.30;16.60;;;;;;;41.04;36.18;101192.78;5092267;28;20421;-69
2022/12/13 08:25:52;;;;;;;27.53;15.00;;;;;;;40.52;36.76;101200.06;5092153;28;20833;-68
2022/12/13 08:28:17;;;;;;;28.20;15.17;;;;;;;40.95;36.55;101196.63;5093820;28;20392;-70
2022/12/13 08:30:43;;;;;;;28.67;16.93;;;;;;;41.28;35.58;101196.94;5092394;28;20417;-70
2022/12/13 08:33:09;;;;;;;26.53;15.93;;;;;;;40.68;36.23;101192.22;5093496;28;20440;-70
2022/12/13 08:35:35;;;;;;;27.40;16.20;;;;;;;41.10;36.20;101187.19;5092107;28;20409;-69
2022/12/13 08:38:02;;;;;;;30.47;15.43;;;;;;;41.17;35.73;101195.66;5092124;28;20829;-68
2022/12/13 08:40:28;;;;;;;40.33;16.50;;;;;;;40.82;36.12;101192.88;5091975;28;20998;-67
2022/12/13 08:42:54;;;;;;;26.57;14.83;;;;;;;41.36;35.36;101187.97;5091926;28;20424;-68
2022/12/13 08:45:22;;;;;;;29.13;16.67;;;;;;;41.30;35.22;101187.31;5091878;28;20504;-68
2022/12/13 08:47:48;;;;;;;26.80;17.27;;;;;;;41.55;35.28;101190.34;5102586;28;20399;-69
2022/12/13 08:50:15;;;;;;;33.40;15.47;;;;;;;41.10;35.91;101184.47;5112040;28;20429;-70
2022/12/13 08:52:43;;;;;;;19.63;13.57;;;;;;;41.28;36.05;101186.03;5113852;28;20446;-68
2022/12/13 08:55:11;;;;;;;23.77;14.40;;;;;;;41.67;34.87;101182.31;5112063;28;20416;-68
2022/12/13 08:57:38;;;;;;;40.97;13.87;;;;;;;41.48;35.28;101182.69;5111933;28;20440;-68
2022/12/13 09:00:05;;;;;;;29.83;16.00;;;;;;;40.46;36.79;101191.22;5109041;28;20791;-67
2022/12/13 09:02:31;;;;;;;35.20;15.57;;;;;;;41.30;35.81;101184.59;5092029;28;20397;-68
2022/12/13 09:04:56;;;;;;;30.20;17.37;;;;;;;41.64;34.84;101193.06;5091812;28;20469;-68
2022/12/13 09:07:22;;;;;;;31.23;16.23;;;;;;;41.76;34.83;101188.56;5091548;28;20772;-68
2022/12/13 09:09:48;;;;;;;26.20;15.30;;;;;;;41.48;35.27;101192.78;5091406;28;20198;-68
2022/12/13 09:12:14;;;;;;;22.20;15.10;;;;;;;41.66;34.48;101196.25;5091547;28;20828;-70
2022/12/13 09:14:40;;;;;;;25.30;13.97;;;;;;;42.05;34.74;101197.91;5091371;28;20516;-69
2022/12/13 09:17:06;;;;;;;31.97;13.27;;;;;;;41.45;34.89;101193.44;5091282;28;20460;-70
2022/12/13 09:19:32;;;;;;;31.80;14.13;;;;;;;41.72;34.97;101182.13;5091281;28;20432;-70
2022/12/13 09:21:58;;;;;;;33.70;16.00;;;;;;;41.44;35.17;101194.56;5090977;28;20535;-69
2022/12/13 09:24:25;;;;;;;27.43;13.20;;;;;;;41.95;34.41;101190.91;5091424;28;20570;-68
2022/12/13 09:26:51;;;;;;;33.83;16.73;;;;;;;42.04;34.21;101186.22;5091392;28;20415;-71
2022/12/13 09:29:17;;;;;;;39.70;13.47;;;;;;;41.79;34.97;101181.66;5091201;28;20405;-74
2022/12/13 09:31:43;;;;;;;35.03;16.60;;;;;;;41.72;34.87;101173.97;5091302;28;20417;-75
2022/12/13 09:34:10;;;;;;;20.00;14.33;;;;;;;41.87;34.47;101175.41;5092860;28;20425;-74
2022/12/13 09:36:36;;;;;;;33.00;15.50;;;;;;;42.02;34.64;101179.50;5091347;28;20413;-75
2022/12/13 09:39:03;;;;;;;32.70;14.20;;;;;;;41.85;34.99;101181.16;5092820;28;20397;-72
2022/12/13 09:41:39;;;;;;;25.50;14.30;;;;;;;41.84;35.22;101181.50;5091215;28;20535;-73
2022/12/13 09:44:13;;;;;;;29.67;15.37;;;;;;;41.85;35.13;101170.25;5091115;28;20415;-72
2022/12/13 09:46:42;;;;;;;24.37;13.80;;;;;;;42.06;35.07;101166.81;5091174;28;20413;-73
2022/12/13 09:49:24;;;;;;;32.70;15.47;;;;;;;41.91;34.97;101168.16;5091097;28;20495;-73
2022/12/13 09:51:57;;;;;;;32.00;15.77;;;;;;;41.69;35.14;101173.84;5091245;28;20495;-75
2022/12/13 09:54:24;;;;;;;28.60;15.03;;;;;;;41.51;35.66;101164.91;5090965;28;20793;-74
2022/12/13 09:56:52;;;;;;;27.07;14.70;;;;;;;41.90;35.36;101168.50;5091204;28;20439;-73
2022/12/13 09:59:34;;;;;;;20.73;14.23;;;;;;;41.84;35.44;101165.13;5090943;28;20413;-73
2022/12/13 10:02:16;;;;;;;28.73;14.30;;;;;;;42.19;34.71;101156.84;5091024;28;20802;-72
2022/12/13 10:04:44;;;;;;;23.77;14.40;;;;;;;41.49;35.54;101162.47;5090780;28;20483;-73
2022/12/13 10:07:22;;;;;;;28.17;14.10;;;;;;;41.61;35.69;101156.38;5090940;28;20509;-73
2022/12/13 10:09:55;;;;;;;30.60;14.77;;;;;;;41.87;35.24;101142.72;5090779;28;20432;-73
2022/12/13 10:12:21;;;;;;;33.33;15.30;;;;;;;41.83;35.06;101142.53;5091183;28;20508;-73
2022/12/13 10:14:53;;;;;;;25.03;13.93;;;;;;;42.04;34.41;101155.44;5090773;28;20503;-73
2022/12/13 10:17:24;;;;;;;32.23;16.50;;;;;;;41.41;35.60;101143.47;5090847;28;20409;-73
2022/12/13 10:19:50;;;;;;;20.80;13.90;;;;;;;42.08;34.89;101132.66;5090774;28;20459;-75
2022/12/13 10:22:19;;;;;;;39.27;16.03;;;;;;;42.15;34.40;101129.41;5090552;28;20468;-74
2022/12/13 10:24:51;;;;;;;25.23;15.67;;;;;;;42.19;34.93;101127.66;5092496;28;20393;-73
2022/12/13 10:27:23;;;;;;;25.40;17.33;;;;;;;41.82;35.52;101129.25;5091578;28;20431;-73
2022/12/13 10:30:07;;;;;;;26.27;13.97;;;;;;;42.03;35.14;101134.75;5094358;28;20497;-73
2022/12/13 10:32:57;;;;;;;35.53;15.40;;;;;;;41.92;35.33;101120.69;5094429;28;20413;-77
2022/12/13 10:35:36;;;;;;;18.53;13.87;;;;;;;42.08;35.14;101121.75;5094582;28;20455;-70
2022/12/13 10:38:28;;;;;;;35.70;15.13;;;;;;;42.36;34.59;101124.03;5094362;28;20428;-69
2022/12/13 10:40:54;;;;;;;21.77;15.20;;;;;;;42.50;34.61;101121.84;5084271;28;20518;-70
2022/12/13 10:43:29;;;;;;;34.70;15.07;;;;;;;41.97;34.94;101119.72;5094094;28;20927;-70
2022/12/13 10:45:55;;;;;;;34.67;13.20;;;;;;;42.35;34.64;101122.41;5094233;28;20938;-71
2022/12/13 10:48:33;;;;;;;33.83;15.20;;;;;;;42.04;35.16;101114.56;5094075;28;20421;-71
2022/12/13 10:51:09;;;;;;;22.57;12.60;;;;;;;42.11;34.69;101115.66;5103904;28;20400;-69
2022/12/13 10:53:39;;;;;;;34.83;15.30;;;;;;;42.09;34.68;101107.00;5114360;28;20407;-70
2022/12/13 10:56:05;;;;;;;26.17;14.70;;;;;;;42.63;34.37;101109.88;5112303;28;20428;-70
2022/12/13 10:58:39;;;;;;;26.00;14.50;;;;;;;42.76;34.00;101104.50;5093900;28;20405;-70
2022/12/13 11:01:17;;;;;;;31.20;15.70;;;;;;;42.24;34.78;101100.22;5093784;28;20865;-69
2022/12/13 11:03:57;;;;;;;24.33;15.37;;;;;;;42.16;34.96;101089.31;5093991;28;20505;-70
2022/12/13 11:06:25;;;;;;;30.50;14.57;;;;;;;42.16;34.90;101095.59;5093809;28;20417;-70
2022/12/13 11:08:52;;;;;;;25.80;14.90;;;;;;;42.50;34.71;101077.41;5093621;28;20417;-72
2022/12/13 11:11:28;;;;;;;20.43;14.07;;;;;;;42.47;34.40;101083.50;5093711;28;20503;-71
2022/12/13 11:14:02;;;;;;;27.37;14.07;;;;;;;42.20;34.44;101084.84;5093555;28;20495;-71
2022/12/13 11:16:39;;;;;;;37.47;15.60;;;;;;;42.45;34.27;101081.13;5093670;28;20413;-69
2022/12/13 11:19:15;;;;;;;26.70;14.07;;;;;;;42.36;34.67;101069.50;5110538;28;20413;-70
2022/12/13 11:21:49;;;;;;;38.03;15.73;;;;;;;42.08;35.36;101066.44;5093499;28;20467;-70